Terminal Aerodrome Forecast
Issued by NWS Wilmington, NC

Home | Current Version | Previous Version | Text Only | Print | Product List | Glossary On
Versions: 1 2 3 4 5 6 7 8 9 10 11 12 13
000
FTUS42 KILM 292300
TAFLBT
TAF
KLBT 292321Z 3000/3024 20006KT P6SM BKN120
     FM300600 25009KT P6SM VCSH BKN060
     FM301200 31016G26KT P6SM FEW050=

USA.gov is the U.S. government's official web portal to all federal, state and local government web resources and services.